Time;durP1;ratioP1;P1;durP2;ratioP2;P2;SDS_P1;SDS_P2;PMS_P1;PMS_P2;Temp;Humidity;BMP_temperature;BMP_pressure;BME280_temperature;BME280_humidity;BME280_pressure;Samples;Min_cycle;Max_cycle;Signal;HPM_P1;HPM_P2
2021/10/09 00:01:45;;;;;;;14.13;12.63;;;;;;;7.53;80.13;102376.38;5016631;28;20230;-85
2021/10/09 00:04:12;;;;;;;15.73;13.90;;;;;;;7.43;78.67;102369.56;5017199;28;20274;-82
2021/10/09 00:06:38;;;;;;;17.30;14.80;;;;;;;7.31;79.52;102370.72;5017062;28;20210;-83
2021/10/09 00:09:05;;;;;;;19.53;15.70;;;;;;;7.23;79.36;102374.44;5017533;28;20211;-82
2021/10/09 00:11:36;;;;;;;20.33;17.03;;;;;;;7.14;78.86;102372.00;5016125;28;20231;-84
2021/10/09 00:14:03;;;;;;;24.27;17.70;;;;;;;7.07;79.56;102375.69;5015661;28;20191;-85
2021/10/09 00:16:31;;;;;;;20.23;16.77;;;;;;;7.02;79.51;102370.47;5016027;28;20203;-85
2021/10/09 00:18:58;;;;;;;18.83;16.33;;;;;;;6.99;79.70;102367.03;5016300;28;20578;-84
2021/10/09 00:21:24;;;;;;;18.47;15.30;;;;;;;6.97;79.47;102373.25;5016136;28;20227;-84
2021/10/09 00:23:51;;;;;;;17.63;15.73;;;;;;;6.94;79.49;102370.66;5016405;28;20222;-83
2021/10/09 00:26:18;;;;;;;20.30;16.20;;;;;;;6.93;79.56;102366.25;5016508;28;20298;-83
2021/10/09 00:28:46;;;;;;;20.03;16.90;;;;;;;6.92;80.02;102372.47;5016702;28;20569;-85
2021/10/09 00:31:12;;;;;;;23.93;18.07;;;;;;;6.90;79.85;102371.63;5016283;28;20234;-84
2021/10/09 00:33:43;;;;;;;26.10;18.27;;;;;;;6.89;79.97;102364.56;5016370;28;20203;-83
2021/10/09 00:36:12;;;;;;;24.83;18.93;;;;;;;6.89;80.32;102363.69;5016016;28;20207;-84
2021/10/09 00:38:39;;;;;;;25.40;19.10;;;;;;;6.86;80.42;102356.69;5016571;28;20249;-82
2021/10/09 00:41:05;;;;;;;29.73;19.97;;;;;;;6.86;80.33;102361.97;5016569;28;20226;-83
2021/10/09 00:43:32;;;;;;;24.90;17.73;;;;;;;6.85;80.49;102354.06;5016726;28;20643;-83
2021/10/09 00:45:59;;;;;;;24.90;18.37;;;;;;;6.84;80.51;102361.13;5016463;28;20213;-83
2021/10/09 00:48:27;;;;;;;29.47;20.83;;;;;;;6.83;80.13;102358.53;5016702;28;20207;-83
2021/10/09 00:50:55;;;;;;;30.13;21.13;;;;;;;6.82;80.83;102368.25;5016955;28;20856;-82
2021/10/09 00:53:23;;;;;;;30.60;20.83;;;;;;;6.81;80.50;102371.78;5020542;28;20207;-83
2021/10/09 00:55:50;;;;;;;25.87;19.47;;;;;;;6.81;80.88;102366.50;5022323;28;20213;-84
2021/10/09 00:58:17;;;;;;;19.00;15.70;;;;;;;6.79;80.37;102368.31;5022373;28;20237;-83
2021/10/09 01:00:44;;;;;;;15.93;14.13;;;;;;;6.72;80.05;102364.03;5021545;28;20223;-86
2021/10/09 01:03:11;;;;;;;16.93;15.03;;;;;;;6.66;79.89;102371.22;5021408;28;20223;-86
2021/10/09 01:05:39;;;;;;;17.37;15.10;;;;;;;6.60;79.95;102364.31;5021137;28;20207;-86
2021/10/09 01:08:07;;;;;;;23.23;17.20;;;;;;;6.56;80.25;102371.41;5021196;28;20649;-86
2021/10/09 01:10:34;;;;;;;25.07;18.67;;;;;;;6.53;80.28;102366.19;5020579;28;20225;-86
2021/10/09 01:13:04;;;;;;;22.27;17.70;;;;;;;6.50;80.05;102371.53;5021330;28;20203;-85
2021/10/09 01:15:32;;;;;;;23.37;17.97;;;;;;;6.50;80.75;102365.38;5020391;28;20241;-82
2021/10/09 01:18:07;;;;;;;23.27;18.90;;;;;;;6.48;80.91;102368.03;5018877;28;20237;-85
2021/10/09 01:20:53;;;;;;;23.03;18.03;;;;;;;6.48;80.84;102364.50;5019836;28;20226;-83
2021/10/09 01:23:21;;;;;;;22.83;17.37;;;;;;;6.47;80.89;102354.81;5019059;28;20708;-83
2021/10/09 01:25:48;;;;;;;25.73;18.77;;;;;;;6.45;81.14;102360.16;5019632;28;20217;-84
2021/10/09 01:28:15;;;;;;;23.30;17.63;;;;;;;6.45;81.34;102356.66;5019462;28;20297;-85
2021/10/09 01:30:41;;;;;;;24.43;17.43;;;;;;;6.43;81.72;102359.34;5019141;28;20237;-84
2021/10/09 01:33:08;;;;;;;21.13;17.87;;;;;;;6.40;81.53;102359.38;5019212;28;20269;-84
2021/10/09 01:35:48;;;;;;;19.57;16.33;;;;;;;6.38;81.26;102360.31;5018714;28;20209;-84
2021/10/09 01:38:16;;;;;;;15.30;13.80;;;;;;;6.33;81.00;102354.22;5018817;28;20218;-83
2021/10/09 01:40:42;;;;;;;15.60;14.00;;;;;;;6.26;81.30;102353.47;5018364;28;20231;-85
2021/10/09 01:43:10;;;;;;;17.13;13.73;;;;;;;6.15;81.22;102348.38;5019781;28;20227;-84
2021/10/09 01:45:38;;;;;;;15.83;14.20;;;;;;;6.09;80.85;102348.47;5019553;28;20289;-84
2021/10/09 01:48:05;;;;;;;19.13;15.10;;;;;;;6.03;80.68;102353.00;5020055;28;20662;-85
2021/10/09 01:50:32;;;;;;;18.63;14.53;;;;;;;5.95;80.61;102354.91;5019611;28;20229;-85
2021/10/09 01:52:59;;;;;;;19.50;16.33;;;;;;;5.88;80.51;102348.84;5019479;28;20293;-85
2021/10/09 01:55:26;;;;;;;19.43;16.10;;;;;;;5.84;80.91;102345.34;5019499;28;20207;-85
2021/10/09 01:57:53;;;;;;;25.30;17.63;;;;;;;5.80;81.03;102345.44;5019950;28;20215;-84
2021/10/09 02:00:19;;;;;;;21.53;16.80;;;;;;;5.79;81.08;102347.19;5019951;28;20221;-84
2021/10/09 02:02:46;;;;;;;27.13;18.63;;;;;;;5.76;81.51;102347.25;5020224;28;20238;-86
2021/10/09 02:05:12;;;;;;;25.13;18.07;;;;;;;5.76;81.63;102346.38;5019274;28;20211;-85
2021/10/09 02:07:39;;;;;;;24.93;18.13;;;;;;;5.75;81.70;102345.50;5020881;28;20207;-84
2021/10/09 02:10:07;;;;;;;25.70;18.70;;;;;;;5.76;81.91;102341.09;5019629;28;20662;-84
2021/10/09 02:12:34;;;;;;;22.17;16.93;;;;;;;5.74;81.77;102346.38;5019290;28;20198;-85
2021/10/09 02:15:04;;;;;;;18.07;15.47;;;;;;;5.72;81.74;102348.22;5019006;28;20203;-85
2021/10/09 02:17:57;;;;;;;17.33;14.77;;;;;;;5.68;81.66;102343.88;5019536;28;20198;-84
2021/10/09 02:26:02;;;;;;;16.87;14.80;;;;;;;5.53;81.58;102342.34;4971962;28;20603;-85
2021/10/09 02:28:29;;;;;;;19.43;14.67;;;;;;;5.51;81.53;102336.22;5018841;28;20221;-83
2021/10/09 02:30:56;;;;;;;19.20;14.70;;;;;;;5.47;81.53;102342.44;5018199;28;20230;-86
2021/10/09 02:33:22;;;;;;;18.30;15.77;;;;;;;5.44;80.98;102336.31;5019725;28;20222;-85
2021/10/09 02:35:50;;;;;;;20.20;16.00;;;;;;;5.40;81.54;102332.84;5019459;28;20301;-86
2021/10/09 02:38:16;;;;;;;22.40;16.70;;;;;;;5.40;81.64;102338.13;4999623;28;20883;-85
2021/10/09 02:40:45;;;;;;;24.50;19.03;;;;;;;5.41;81.88;102344.28;4999326;28;20696;-84
2021/10/09 02:43:13;;;;;;;35.27;19.73;;;;;;;5.42;82.28;102331.06;5011669;28;20228;-81
2021/10/09 02:45:41;;;;;;;29.37;18.90;;;;;;;5.42;82.20;102328.41;5007300;28;20207;-81
2021/10/09 02:48:09;;;;;;;31.53;19.47;;;;;;;5.40;82.67;102330.19;5015040;28;20298;-82
2021/10/09 02:50:37;;;;;;;27.53;18.53;;;;;;;5.36;82.34;102336.44;5016604;28;20223;-80
2021/10/09 02:53:03;;;;;;;25.93;18.83;;;;;;;5.33;82.85;102336.50;5017799;28;20206;-81
2021/10/09 02:55:30;;;;;;;22.47;18.83;;;;;;;5.32;83.19;102334.75;5025621;28;20217;-81
2021/10/09 02:57:56;;;;;;;24.67;18.50;;;;;;;5.31;83.55;102333.00;5011620;28;20212;-80
2021/10/09 03:00:24;;;;;;;24.13;19.37;;;;;;;5.32;83.47;102326.81;5024170;28;20242;-80
2021/10/09 03:02:51;;;;;;;23.33;18.87;;;;;;;5.33;83.62;102332.97;5003680;28;20310;-81
2021/10/09 03:05:18;;;;;;;23.57;18.60;;;;;;;5.33;83.87;102333.84;5018141;28;20214;-80
2021/10/09 03:07:44;;;;;;;23.50;18.40;;;;;;;5.34;84.22;102334.72;5010229;28;20203;-82
2021/10/09 03:10:12;;;;;;;22.73;17.57;;;;;;;5.33;84.28;102328.56;5021517;28;20289;-82
2021/10/09 03:12:39;;;;;;;24.10;18.23;;;;;;;5.35;84.15;102329.41;5018035;28;20213;-82
2021/10/09 03:15:07;;;;;;;21.37;17.73;;;;;;;5.35;84.49;102329.41;5021929;28;20202;-81
2021/10/09 03:17:35;;;;;;;22.90;18.03;;;;;;;5.36;84.69;102327.66;5023964;28;20202;-82
2021/10/09 03:20:01;;;;;;;22.70;17.73;;;;;;;5.36;84.53;102331.16;5027426;28;20230;-83
2021/10/09 03:22:30;;;;;;;21.83;17.17;;;;;;;5.34;84.46;102329.44;5035212;28;20230;-82
2021/10/09 03:24:57;;;;;;;21.13;17.40;;;;;;;5.35;84.81;102333.81;5019732;28;20214;-81
2021/10/09 03:27:23;;;;;;;24.50;17.37;;;;;;;5.32;84.31;102328.59;5015309;28;20207;-82
2021/10/09 03:29:50;;;;;;;26.83;18.37;;;;;;;5.31;84.71;102334.75;5002119;28;20209;-82
2021/10/09 03:32:16;;;;;;;24.80;18.00;;;;;;;5.30;84.79;102330.38;5018297;28;20227;-82
2021/10/09 03:34:44;;;;;;;25.27;18.43;;;;;;;5.28;84.45;102335.69;5021807;28;20653;-82
2021/10/09 03:37:11;;;;;;;24.87;18.57;;;;;;;5.27;84.69;102328.66;5004078;28;20525;-81
2021/10/09 03:39:41;;;;;;;25.00;18.47;;;;;;;5.25;85.38;102330.44;5014813;28;20217;-82
2021/10/09 03:42:10;;;;;;;24.63;18.57;;;;;;;5.26;85.22;102336.59;5014089;28;20258;-81
2021/10/09 03:44:42;;;;;;;20.83;16.27;;;;;;;5.25;85.11;102330.44;4997496;28;20211;-81
2021/10/09 03:47:17;;;;;;;22.27;17.03;;;;;;;5.22;84.84;102330.47;5008156;28;20196;-82
2021/10/09 03:49:49;;;;;;;27.63;18.70;;;;;;;5.23;84.98;102333.09;4996677;28;20218;-81
2021/10/09 03:52:34;;;;;;;24.87;16.93;;;;;;;5.20;84.93;102338.41;5013813;28;20828;-81
2021/10/09 03:55:01;;;;;;;22.63;17.03;;;;;;;5.20;85.32;102340.19;5013410;28;20231;-82
2021/10/09 03:57:27;;;;;;;23.77;16.73;;;;;;;5.19;85.33;102343.75;4995311;28;20298;-81
2021/10/09 03:59:54;;;;;;;25.83;17.00;;;;;;;5.17;85.12;102341.13;5011144;28;20215;-80
2021/10/09 04:02:20;;;;;;;23.83;16.93;;;;;;;5.16;84.84;102341.13;5015010;28;20227;-81
2021/10/09 04:04:48;;;;;;;25.30;17.53;;;;;;;5.15;84.77;102340.28;5008120;28;20209;-81
2021/10/09 04:07:15;;;;;;;21.70;16.57;;;;;;;5.14;85.10;102345.56;5010131;28;20215;-82
2021/10/09 04:09:41;;;;;;;24.33;17.47;;;;;;;5.12;85.10;102340.31;5007032;28;20229;-80
2021/10/09 04:12:08;;;;;;;27.30;18.27;;;;;;;5.11;85.17;102335.91;5020040;28;20234;-82
2021/10/09 04:14:35;;;;;;;27.37;18.90;;;;;;;5.10;84.66;102335.94;5016739;28;20203;-83
2021/10/09 04:17:01;;;;;;;26.63;18.47;;;;;;;5.08;84.92;102333.31;5002634;28;20618;-83
2021/10/09 04:19:28;;;;;;;32.17;19.50;;;;;;;5.08;84.84;102333.31;5026369;28;20671;-82
2021/10/09 04:21:55;;;;;;;30.27;19.10;;;;;;;5.06;85.16;102336.88;5017037;28;20234;-83
2021/10/09 04:24:22;;;;;;;29.13;19.13;;;;;;;5.05;85.60;102340.41;5006284;28;20218;-82
2021/10/09 04:26:48;;;;;;;31.07;20.37;;;;;;;5.03;85.10;102329.84;5016486;28;20206;-83
2021/10/09 04:29:15;;;;;;;32.23;20.50;;;;;;;5.03;85.31;102335.13;5015567;28;20211;-82
2021/10/09 04:31:42;;;;;;;30.50;19.60;;;;;;;5.03;85.21;102334.25;5013812;28;20566;-83
2021/10/09 04:34:08;;;;;;;29.20;19.33;;;;;;;5.02;85.71;102337.78;5022018;28;20211;-83
2021/10/09 04:36:35;;;;;;;27.73;19.37;;;;;;;5.01;85.36;102336.06;5021059;28;20211;-83
2021/10/09 04:39:03;;;;;;;30.63;20.47;;;;;;;5.00;85.98;102331.69;5009913;28;20299;-83
2021/10/09 04:41:30;;;;;;;31.27;19.40;;;;;;;5.00;86.05;102329.03;5021661;28;20231;-83
2021/10/09 04:43:57;;;;;;;32.30;18.77;;;;;;;4.99;85.96;102320.25;5010144;28;20927;-82
2021/10/09 04:46:23;;;;;;;35.67;21.43;;;;;;;4.98;85.74;102323.78;5009408;28;20215;-82
2021/10/09 04:48:50;;;;;;;31.80;20.60;;;;;;;4.98;85.95;102326.44;5033181;28;20202;-82
2021/10/09 04:51:16;;;;;;;33.53;20.67;;;;;;;4.98;85.66;102328.19;5004825;28;20219;-81
2021/10/09 04:53:43;;;;;;;29.63;20.60;;;;;;;4.96;86.27;102329.97;5014380;28;20290;-81
2021/10/09 04:56:11;;;;;;;27.77;19.73;;;;;;;4.96;86.34;102328.22;5015114;28;20326;-81
2021/10/09 04:58:37;;;;;;;35.63;19.97;;;;;;;4.95;85.94;102331.75;5016695;28;20217;-81
2021/10/09 05:01:04;;;;;;;29.47;19.63;;;;;;;4.96;86.24;102330.84;5012827;28;20333;-80
2021/10/09 05:03:31;;;;;;;26.90;19.53;;;;;;;4.95;86.12;102337.03;5019514;28;20329;-81
2021/10/09 05:05:57;;;;;;;30.27;19.57;;;;;;;4.95;86.35;102346.72;5024759;28;20292;-81
2021/10/09 05:08:24;;;;;;;28.17;18.80;;;;;;;4.92;86.56;102334.41;5012320;28;20218;-82
2021/10/09 05:10:50;;;;;;;30.37;20.33;;;;;;;4.92;86.26;102341.47;5012688;28;20230;-82
2021/10/09 05:13:18;;;;;;;29.30;19.47;;;;;;;4.88;86.27;102333.56;5022045;28;20194;-81
2021/10/09 05:15:46;;;;;;;26.50;19.03;;;;;;;4.88;86.36;102338.84;5014307;28;20207;-82
2021/10/09 05:18:13;;;;;;;26.13;18.87;;;;;;;4.87;86.50;102337.09;5009730;28;20211;-83
2021/10/09 05:20:40;;;;;;;26.23;18.73;;;;;;;4.87;86.17;102349.44;4999370;28;20231;-83
2021/10/09 05:23:07;;;;;;;27.83;19.67;;;;;;;4.84;86.40;102346.81;5015669;28;20234;-83
2021/10/09 05:25:34;;;;;;;26.77;18.77;;;;;;;4.83;86.35;102348.63;5005361;28;20710;-82
2021/10/09 05:28:04;;;;;;;27.50;18.50;;;;;;;4.82;86.66;102348.63;5015422;28;20198;-82
2021/10/09 05:30:33;;;;;;;23.77;18.67;;;;;;;4.79;86.53;102344.28;5019676;28;20684;-82
2021/10/09 05:33:12;;;;;;;26.90;18.23;;;;;;;4.79;86.25;102357.47;5022076;28;20626;-82
2021/10/09 05:35:38;;;;;;;26.57;19.13;;;;;;;4.78;86.59;102357.47;5015187;28;20214;-83
2021/10/09 05:38:05;;;;;;;26.10;19.00;;;;;;;4.76;86.75;102357.50;5002877;28;20214;-82
2021/10/09 05:40:32;;;;;;;22.83;17.73;;;;;;;4.77;86.31;102364.53;5011421;28;20697;-81
2021/10/09 05:42:58;;;;;;;25.90;17.93;;;;;;;4.75;86.79;102371.59;5016733;28;20224;-81
2021/10/09 05:45:25;;;;;;;23.53;17.23;;;;;;;4.74;86.85;102367.19;5006803;28;20207;-81
2021/10/09 05:47:53;;;;;;;22.23;17.33;;;;;;;4.72;86.79;102370.75;5015504;28;20223;-82
2021/10/09 05:50:24;;;;;;;21.40;17.10;;;;;;;4.70;86.79;102368.13;5010565;28;20294;-81
2021/10/09 05:52:55;;;;;;;24.10;16.97;;;;;;;4.68;86.29;102372.53;5014696;28;20199;-81
2021/10/09 05:55:26;;;;;;;20.97;16.03;;;;;;;4.66;86.71;102384.88;5016670;28;20326;-81
2021/10/09 05:58:00;;;;;;;24.17;17.83;;;;;;;4.65;86.20;102380.50;5020968;28;20218;-82
2021/10/09 06:42:19;;;;;;;23.30;17.87;;;;;;;4.39;86.42;102406.28;5013333;28;20621;-82
2021/10/09 06:47:45;;;;;;;27.20;19.00;;;;;;;4.44;87.05;102423.84;4973183;28;20208;-82
2021/10/09 06:50:28;;;;;;;24.87;18.43;;;;;;;4.48;87.58;102414.09;5000685;28;20210;-82
2021/10/09 07:01:08;;;;;;;25.20;19.27;;;;;;;4.62;87.45;102414.84;5014210;28;20232;-82
2021/10/09 07:03:35;;;;;;;30.33;19.30;;;;;;;4.69;87.65;102418.28;5007811;28;20226;-83
2021/10/09 07:06:02;;;;;;;32.73;19.60;;;;;;;4.75;88.50;102421.75;5015946;28;20209;-83
2021/10/09 07:08:30;;;;;;;29.10;20.07;;;;;;;4.84;88.44;102421.63;5014612;28;20685;-82
2021/10/09 07:10:59;;;;;;;30.43;20.50;;;;;;;4.94;89.20;102424.16;5015416;28;20218;-82
2021/10/09 07:13:26;;;;;;;35.73;20.20;;;;;;;5.03;89.35;102422.28;5016041;28;20199;-83
2021/10/09 07:15:52;;;;;;;32.07;19.90;;;;;;;5.11;89.49;102423.06;5013177;28;20213;-82
2021/10/09 07:18:19;;;;;;;32.90;19.57;;;;;;;5.21;89.98;102407.97;5017273;28;20202;-84
2021/10/09 07:20:46;;;;;;;26.77;19.27;;;;;;;5.32;90.16;102419.28;5011991;28;20313;-83
2021/10/09 07:23:12;;;;;;;37.07;18.57;;;;;;;5.40;89.91;102422.66;5012357;28;20322;-83
2021/10/09 07:25:41;;;;;;;29.37;19.20;;;;;;;5.50;90.11;102416.38;5011953;28;20203;-83
2021/10/09 07:28:07;;;;;;;26.00;17.17;;;;;;;5.62;90.53;102419.72;5014579;28;20230;-82
2021/10/09 07:30:34;;;;;;;28.30;17.87;;;;;;;5.70;90.34;102423.16;5009967;28;20294;-84
2021/10/09 07:33:01;;;;;;;29.10;18.23;;;;;;;5.81;90.52;102416.78;5014982;28;20205;-83
2021/10/09 07:35:28;;;;;;;30.57;19.27;;;;;;;5.91;90.86;102415.78;5015569;28;20211;-84
2021/10/09 07:37:55;;;;;;;30.67;18.10;;;;;;;6.06;90.79;102427.03;5016892;28;20298;-83
2021/10/09 07:40:21;;;;;;;26.43;18.53;;;;;;;6.19;91.01;102424.13;5012520;28;20257;-82
2021/10/09 07:42:49;;;;;;;28.43;17.43;;;;;;;6.33;90.94;102425.66;5014475;28;20242;-84
2021/10/09 07:45:16;;;;;;;31.03;18.73;;;;;;;6.43;90.42;102421.97;5015138;28;20214;-85
2021/10/09 07:47:43;;;;;;;25.07;17.73;;;;;;;6.54;90.16;102441.19;5018913;28;20202;-86
2021/10/09 07:50:13;;;;;;;27.13;18.27;;;;;;;6.64;90.02;102434.78;5014076;28;20274;-84
2021/10/09 07:52:41;;;;;;;24.77;16.23;;;;;;;6.76;89.73;102441.66;5011445;28;20695;-84
2021/10/09 07:55:08;;;;;;;25.57;16.77;;;;;;;6.85;90.06;102449.41;5014202;28;20211;-84
2021/10/09 07:57:35;;;;;;;30.47;17.17;;;;;;;6.95;88.95;102443.03;5016349;28;20219;-84
2021/10/09 08:00:05;;;;;;;28.97;16.90;;;;;;;7.07;89.30;102444.56;5014352;28;20285;-85
2021/10/09 08:02:34;;;;;;;25.50;15.67;;;;;;;7.18;89.15;102447.84;5013217;28;20238;-84
2021/10/09 08:05:01;;;;;;;22.13;16.23;;;;;;;7.28;89.15;102444.13;5016769;28;20744;-85
2021/10/09 08:07:30;;;;;;;25.90;14.87;;;;;;;7.38;88.78;102443.00;5016970;28;20650;-84
2021/10/09 08:09:56;;;;;;;25.07;15.43;;;;;;;7.45;88.55;102439.34;5015184;28;20199;-84
2021/10/09 08:12:23;;;;;;;28.17;16.57;;;;;;;7.53;87.43;102432.06;5008805;28;20968;-82
2021/10/09 08:14:49;;;;;;;24.63;16.33;;;;;;;7.62;86.79;102442.47;5017125;28;20336;-83
2021/10/09 08:17:17;;;;;;;22.00;15.57;;;;;;;7.73;86.93;102439.56;5008672;28;20235;-82
2021/10/09 08:19:44;;;;;;;22.57;16.03;;;;;;;7.89;87.04;102443.59;5010019;28;20207;-84
2021/10/09 08:22:11;;;;;;;28.20;14.97;;;;;;;8.06;86.50;102443.19;5009474;28;20332;-82
2021/10/09 08:24:42;;;;;;;25.57;15.53;;;;;;;8.20;85.72;102443.75;5009548;28;20235;-84
2021/10/09 08:27:35;;;;;;;22.37;15.83;;;;;;;8.34;85.12;102448.75;5014821;28;20203;-83
2021/10/09 08:35:35;;;;;;;28.53;15.40;;;;;;;8.88;83.47;102434.91;5020759;28;20262;-84
2021/10/09 08:40:47;;;;;;;20.87;15.10;;;;;;;9.19;82.47;102448.19;5008071;28;20241;-82
2021/10/09 08:43:13;;;;;;;27.20;14.57;;;;;;;9.35;82.08;102452.13;5020886;28;20211;-82
2021/10/09 08:45:40;;;;;;;22.07;15.70;;;;;;;9.51;80.67;102437.47;5021266;28;20211;-83
2021/10/09 08:48:08;;;;;;;21.63;14.73;;;;;;;9.65;79.93;102447.69;5020109;28;20211;-83
2021/10/09 08:50:35;;;;;;;19.90;13.83;;;;;;;9.76;79.46;102445.56;5018903;28;20309;-82
2021/10/09 08:53:07;;;;;;;20.83;13.80;;;;;;;9.89;78.60;102454.91;5011798;28;20219;-82
2021/10/09 08:55:35;;;;;;;21.73;14.53;;;;;;;9.98;77.82;102443.09;5012360;28;20207;-83
2021/10/09 08:58:04;;;;;;;21.17;14.17;;;;;;;10.05;77.09;102447.28;5006262;28;20226;-82
2021/10/09 09:01:00;;;;;;;18.37;14.40;;;;;;;10.14;76.35;102449.66;5017956;28;20228;-84
2021/10/09 09:03:55;;;;;;;21.50;14.67;;;;;;;10.25;76.06;102447.53;5015530;28;20256;-84
2021/10/09 09:06:40;;;;;;;26.93;14.90;;;;;;;10.27;75.35;102451.03;5021417;28;20270;-83
2021/10/09 09:09:15;;;;;;;24.67;15.53;;;;;;;10.31;75.21;102443.81;5022256;28;20293;-83
2021/10/09 09:26:02;;;;;;;19.27;15.50;;;;;;;10.73;73.81;102449.47;5014102;28;20202;-82
2021/10/09 09:31:39;;;;;;;22.17;15.40;;;;;;;10.96;73.96;102429.94;5020415;28;20234;-83
2021/10/09 09:34:20;;;;;;;19.03;15.23;;;;;;;11.03;72.97;102426.16;5006791;28;20998;-82
2021/10/09 09:37:06;;;;;;;21.77;15.10;;;;;;;11.11;72.58;102434.72;5008174;28;20218;-84
2021/10/09 09:39:40;;;;;;;22.13;15.70;;;;;;;11.20;72.49;102428.19;5017376;28;20213;-82
2021/10/09 09:42:08;;;;;;;26.37;15.53;;;;;;;11.27;71.93;102424.38;5011967;28;20665;-83
2021/10/09 09:44:35;;;;;;;27.50;16.07;;;;;;;11.33;71.83;102408.97;5010035;28;20232;-83
2021/10/09 09:47:03;;;;;;;24.23;15.93;;;;;;;11.44;72.17;102412.13;5006565;28;20577;-82
2021/10/09 09:49:30;;;;;;;23.97;16.33;;;;;;;11.55;71.54;102411.69;5013527;28;20200;-83
2021/10/09 09:51:59;;;;;;;24.83;15.53;;;;;;;11.62;71.08;102409.66;5022468;28;20227;-83
2021/10/09 09:54:28;;;;;;;26.53;17.30;;;;;;;11.68;70.97;102406.72;5021866;28;20209;-82
2021/10/09 09:56:57;;;;;;;20.80;15.73;;;;;;;11.75;70.96;102410.91;5017002;28;20284;-83
2021/10/09 09:59:26;;;;;;;30.97;17.23;;;;;;;11.83;71.05;102407.00;5011543;28;20591;-83
2021/10/09 10:01:53;;;;;;;22.47;16.30;;;;;;;11.93;71.01;102409.31;5018205;28;20604;-83
2021/10/09 10:04:20;;;;;;;21.47;15.90;;;;;;;12.01;70.90;102413.38;5011033;28;20233;-84
2021/10/09 10:06:48;;;;;;;28.73;15.77;;;;;;;12.09;70.38;102408.63;5009637;28;20222;-83
2021/10/09 10:09:16;;;;;;;25.40;15.60;;;;;;;12.14;69.57;102408.44;5007241;28;20242;-82
2021/10/09 10:11:42;;;;;;;30.10;16.20;;;;;;;12.20;69.31;102407.28;5015889;28;20596;-84
2021/10/09 10:14:09;;;;;;;23.93;15.50;;;;;;;12.22;68.41;102406.28;5010651;28;20213;-82
2021/10/09 10:16:36;;;;;;;24.27;16.47;;;;;;;12.26;68.37;102413.25;5010026;28;20207;-82
2021/10/09 10:19:02;;;;;;;22.30;16.03;;;;;;;12.29;68.40;102410.44;5015281;28;20207;-81
2021/10/09 10:21:46;;;;;;;21.20;14.73;;;;;;;12.35;67.79;102407.53;5016811;28;20230;-81
2021/10/09 10:24:14;;;;;;;24.30;15.30;;;;;;;12.43;67.27;102409.84;5006649;28;20247;-80
2021/10/09 10:26:42;;;;;;;24.10;14.53;;;;;;;12.49;66.51;102404.25;5002056;28;20226;-80
2021/10/09 10:29:24;;;;;;;22.93;15.57;;;;;;;12.56;66.67;102399.47;4997995;28;20211;-79
2021/10/09 10:32:18;;;;;;;24.30;14.67;;;;;;;12.61;66.07;102395.69;5013200;28;20230;-80
2021/10/09 10:34:46;;;;;;;25.40;16.17;;;;;;;12.65;65.69;102397.28;5009298;28;20206;-80
2021/10/09 10:37:43;;;;;;;27.33;15.17;;;;;;;12.70;65.27;102391.75;5013368;28;20337;-82
2021/10/09 10:40:10;;;;;;;22.60;14.90;;;;;;;12.75;65.23;102392.38;4941711;29;20217;-82
2021/10/09 10:42:38;;;;;;;27.53;14.73;;;;;;;12.79;64.45;102389.53;4986057;28;20217;-81
2021/10/09 10:45:12;;;;;;;22.47;14.73;;;;;;;12.83;64.22;102385.78;5009856;28;20220;-81
2021/10/09 10:57:21;;;;;;;22.10;13.13;;;;;;;13.00;62.43;102379.66;4936197;29;20225;-82
2021/10/09 10:59:55;;;;;;;22.03;13.90;;;;;;;13.06;61.66;102386.53;5003612;28;20723;-82
2021/10/09 11:02:23;;;;;;;22.87;12.67;;;;;;;13.11;60.44;102389.84;5015361;28;20631;-82
2021/10/09 11:04:52;;;;;;;19.03;12.17;;;;;;;13.17;60.76;102382.44;5014943;28;20235;-82
2021/10/09 11:07:21;;;;;;;18.67;12.67;;;;;;;13.26;59.84;102374.91;5011304;28;20206;-82
2021/10/09 11:09:49;;;;;;;18.00;11.90;;;;;;;13.33;59.44;102376.38;5003918;28;20204;-81
2021/10/09 11:12:26;;;;;;;16.73;11.07;;;;;;;13.38;58.79;102377.03;5000445;28;20254;-81
2021/10/09 11:15:03;;;;;;;17.37;10.93;;;;;;;13.42;58.64;102379.50;5010104;28;20211;-81
2021/10/09 11:17:33;;;;;;;19.60;11.57;;;;;;;13.47;57.27;102364.06;5012431;28;20202;-81
2021/10/09 11:19:59;;;;;;;15.47;10.97;;;;;;;13.51;57.12;102367.47;5009301;28;20555;-81
2021/10/09 11:22:38;;;;;;;14.33;10.93;;;;;;;13.52;56.23;102355.81;5016645;28;20234;-81
2021/10/09 11:25:06;;;;;;;17.77;10.70;;;;;;;13.53;56.20;102369.13;5000689;28;20218;-81
2021/10/09 11:27:36;;;;;;;18.57;10.73;;;;;;;13.56;55.74;102362.75;5007682;28;20211;-81
2021/10/09 11:30:07;;;;;;;16.33;10.23;;;;;;;13.58;55.46;102360.88;5010962;28;20257;-81
2021/10/09 11:32:36;;;;;;;15.40;10.67;;;;;;;13.62;55.06;102359.75;5015560;28;20234;-81
2021/10/09 11:35:04;;;;;;;18.63;10.97;;;;;;;13.68;54.97;102366.63;5010507;28;20290;-81
2021/10/09 11:37:31;;;;;;;15.30;10.37;;;;;;;13.72;54.49;102363.75;4994461;28;20214;-82
2021/10/09 11:40:00;;;;;;;15.10;10.30;;;;;;;13.74;54.26;102363.66;5003689;28;20258;-82
2021/10/09 11:42:29;;;;;;;14.73;9.77;;;;;;;13.77;53.91;102367.06;5002668;28;20227;-82
2021/10/09 11:45:10;;;;;;;12.23;7.73;;;;;;;13.79;53.85;102364.31;5010475;28;20230;-82
2021/10/09 11:53:38;;;;;;;14.27;9.03;;;;;;;13.82;51.63;102364.13;5007282;28;20225;-81
2021/10/09 11:56:06;;;;;;;11.10;7.03;;;;;;;13.86;50.80;102363.06;5004911;28;20192;-82
2021/10/09 11:58:33;;;;;;;13.73;8.00;;;;;;;13.86;49.57;102360.38;5009946;28;20239;-82
2021/10/09 12:01:01;;;;;;;9.47;7.27;;;;;;;13.82;49.35;102354.28;5005338;28;20227;-82
2021/10/09 12:03:33;;;;;;;12.10;7.47;;;;;;;13.83;48.32;102350.69;5005804;28;20306;-82
2021/10/09 12:06:06;;;;;;;10.63;6.93;;;;;;;13.84;47.91;102356.91;5009823;28;20232;-82
2021/10/09 12:08:40;;;;;;;11.40;6.93;;;;;;;13.83;47.41;102356.03;5008991;28;20211;-82
2021/10/09 12:11:11;;;;;;;11.70;6.90;;;;;;;13.85;47.02;102351.47;5010228;28;20231;-82
2021/10/09 12:13:48;;;;;;;10.30;7.27;;;;;;;13.87;46.92;102348.72;5002904;28;20211;-81
2021/10/09 12:16:16;;;;;;;10.00;7.00;;;;;;;13.92;46.94;102351.19;5004501;28;20282;-81
2021/10/09 12:18:48;;;;;;;10.53;6.17;;;;;;;13.93;46.28;102342.19;5011996;28;20206;-80
2021/10/09 12:21:14;;;;;;;11.33;6.67;;;;;;;13.90;45.39;102343.22;5006965;28;20222;-82
2021/10/09 12:23:41;;;;;;;13.60;7.30;;;;;;;13.88;45.29;102348.66;5014749;28;20210;-81
2021/10/09 12:26:15;;;;;;;9.47;6.53;;;;;;;13.86;45.04;102339.81;5008680;28;20296;-82
2021/10/09 12:29:11;;;;;;;12.60;6.37;;;;;;;13.86;44.91;102346.97;5008300;28;20227;-81
2021/10/09 12:31:43;;;;;;;10.00;6.87;;;;;;;13.79;44.15;102341.06;5007263;28;20231;-81
2021/10/09 12:34:28;;;;;;;8.67;6.17;;;;;;;13.79;44.61;102338.38;5010325;28;20615;-81
2021/10/09 12:37:17;;;;;;;8.60;6.83;;;;;;;13.82;44.55;102337.34;5011095;28;20584;-81
2021/10/09 12:39:46;;;;;;;13.77;7.23;;;;;;;13.82;44.66;102330.19;5009775;28;20239;-81
2021/10/09 12:42:14;;;;;;;11.83;7.03;;;;;;;13.85;44.75;102326.50;5018560;28;20699;-82
2021/10/09 12:44:41;;;;;;;10.13;7.40;;;;;;;13.86;45.07;102329.09;5018065;28;20323;-82
2021/10/09 12:47:09;;;;;;;12.57;6.83;;;;;;;13.88;45.09;102327.22;5011842;28;20207;-81
2021/10/09 12:49:35;;;;;;;10.60;7.37;;;;;;;13.89;44.83;102323.59;5018309;28;20470;-81
2021/10/09 12:52:02;;;;;;;8.53;6.80;;;;;;;13.94;45.50;102330.53;5009864;28;20219;-81
2021/10/09 12:54:31;;;;;;;12.57;7.70;;;;;;;13.96;45.18;102325.97;5013201;28;20207;-80
2021/10/09 12:56:57;;;;;;;11.37;7.87;;;;;;;13.96;45.29;102323.28;5014552;28;20264;-80
2021/10/09 12:59:24;;;;;;;10.07;6.97;;;;;;;13.99;45.68;102320.44;5019658;28;20760;-81
2021/10/09 13:01:51;;;;;;;11.70;7.27;;;;;;;14.03;45.66;102319.34;5016572;28;20222;-82
2021/10/09 13:04:18;;;;;;;11.17;7.70;;;;;;;14.04;46.01;102324.63;5014097;28;20213;-81
2021/10/09 13:06:45;;;;;;;9.03;6.80;;;;;;;14.06;45.56;102322.75;5006218;28;20247;-81